EGNV

Durham Tees Valley Airport

Durham, United Kingdom
METAR EGNV 201850Z 20005KT 9999 FEW030 12/10 Q1027
Observed Flight Rules
Oct-20 @ 18:50 UTC (40 minutes ago) Visual Flight Rules
Wind Visibility Clouds
200° at 5 knots 10,000+ meters
  • Few at 3,000' AGL
Temperatures Readings
Current 12°C / 54°F
Dewpoint 10°C / 50°F
Humidity 88%
Altimeter 30.32" Hg
Pressure 1027 hPa
Elevation 37
METAR EGNV 201850Z 20005KT 9999 FEW030 12/10 Q1027
Observed Flight Rules
Oct-20 @ 18:50 UTC
(40 minutes ago)
VFR
Wind Visibility
200° at 5 knots 10,000+ meters
Clouds
  • Few at 3,000' AGL
Temperature Dewpoint
12°C / 54°F 10°C / 50°F
Humidity Altimeter Pressure
88% 30.32" Hg 1027 hPa